sensor_id;sensor_type;location;lat;lon;timestamp;P1;durP1;ratioP1;P2;durP2;ratioP2
9815;SDS011;4947;44.526;11.360;2022-10-19T00:00:48;18.00;;;12.20;;
9815;SDS011;4947;44.526;11.360;2022-10-19T00:03:16;21.50;;;13.50;;
9815;SDS011;4947;44.526;11.360;2022-10-19T00:05:44;19.73;;;13.35;;
9815;SDS011;4947;44.526;11.360;2022-10-19T00:08:11;20.92;;;14.60;;
9815;SDS011;4947;44.526;11.360;2022-10-19T00:10:39;16.50;;;11.25;;
9815;SDS011;4947;44.526;11.360;2022-10-19T00:13:07;21.33;;;14.52;;
9815;SDS011;4947;44.526;11.360;2022-10-19T00:15:37;20.65;;;13.70;;
9815;SDS011;4947;44.526;11.360;2022-10-19T00:18:07;22.20;;;14.05;;
9815;SDS011;4947;44.526;11.360;2022-10-19T00:20:35;22.80;;;12.90;;
9815;SDS011;4947;44.526;11.360;2022-10-19T00:23:03;22.00;;;13.65;;
9815;SDS011;4947;44.526;11.360;2022-10-19T00:25:30;20.52;;;13.40;;
9815;SDS011;4947;44.526;11.360;2022-10-19T00:27:58;22.92;;;13.85;;
9815;SDS011;4947;44.526;11.360;2022-10-19T00:30:26;21.58;;;15.20;;
9815;SDS011;4947;44.526;11.360;2022-10-19T00:32:53;19.85;;;13.45;;
9815;SDS011;4947;44.526;11.360;2022-10-19T00:35:22;20.48;;;13.65;;
9815;SDS011;4947;44.526;11.360;2022-10-19T00:37:49;21.23;;;13.27;;
9815;SDS011;4947;44.526;11.360;2022-10-19T00:40:17;20.42;;;13.43;;
9815;SDS011;4947;44.526;11.360;2022-10-19T00:42:44;20.25;;;14.18;;
9815;SDS011;4947;44.526;11.360;2022-10-19T00:45:13;27.08;;;13.77;;
9815;SDS011;4947;44.526;11.360;2022-10-19T00:47:42;19.70;;;13.10;;
9815;SDS011;4947;44.526;11.360;2022-10-19T00:50:11;23.98;;;13.90;;
9815;SDS011;4947;44.526;11.360;2022-10-19T00:52:41;18.35;;;12.90;;
9815;SDS011;4947;44.526;11.360;2022-10-19T00:55:11;16.90;;;12.55;;
9815;SDS011;4947;44.526;11.360;2022-10-19T00:57:39;21.67;;;13.77;;
9815;SDS011;4947;44.526;11.360;2022-10-19T01:00:07;24.95;;;14.63;;
9815;SDS011;4947;44.526;11.360;2022-10-19T01:02:36;23.38;;;13.70;;
9815;SDS011;4947;44.526;11.360;2022-10-19T01:05:03;19.20;;;13.43;;
9815;SDS011;4947;44.526;11.360;2022-10-19T01:07:32;21.23;;;13.27;;
9815;SDS011;4947;44.526;11.360;2022-10-19T01:10:01;21.27;;;14.70;;
9815;SDS011;4947;44.526;11.360;2022-10-19T01:12:33;20.08;;;13.23;;
9815;SDS011;4947;44.526;11.360;2022-10-19T01:15:19;25.23;;;13.70;;
9815;SDS011;4947;44.526;11.360;2022-10-19T01:17:53;21.35;;;13.60;;
9815;SDS011;4947;44.526;11.360;2022-10-19T01:20:31;19.95;;;12.70;;
9815;SDS011;4947;44.526;11.360;2022-10-19T01:26:12;18.90;;;12.73;;
9815;SDS011;4947;44.526;11.360;2022-10-19T01:28:53;18.92;;;12.32;;
9815;SDS011;4947;44.526;11.360;2022-10-19T01:31:34;21.30;;;13.85;;
9815;SDS011;4947;44.526;11.360;2022-10-19T01:34:08;22.20;;;13.52;;
9815;SDS011;4947;44.526;11.360;2022-10-19T01:36:46;20.90;;;13.15;;
9815;SDS011;4947;44.526;11.360;2022-10-19T01:39:23;21.50;;;13.52;;
9815;SDS011;4947;44.526;11.360;2022-10-19T01:41:59;20.20;;;13.15;;
9815;SDS011;4947;44.526;11.360;2022-10-19T01:44:34;18.63;;;12.68;;
9815;SDS011;4947;44.526;11.360;2022-10-19T01:47:09;22.20;;;12.98;;
9815;SDS011;4947;44.526;11.360;2022-10-19T01:49:42;20.90;;;11.93;;
9815;SDS011;4947;44.526;11.360;2022-10-19T01:52:16;23.08;;;12.93;;
9815;SDS011;4947;44.526;11.360;2022-10-19T01:54:48;20.65;;;13.27;;
9815;SDS011;4947;44.526;11.360;2022-10-19T01:57:19;22.17;;;12.85;;
9815;SDS011;4947;44.526;11.360;2022-10-19T01:59:49;18.25;;;13.65;;
9815;SDS011;4947;44.526;11.360;2022-10-19T02:02:19;19.70;;;12.23;;
9815;SDS011;4947;44.526;11.360;2022-10-19T02:04:49;20.38;;;13.48;;
9815;SDS011;4947;44.526;11.360;2022-10-19T02:07:19;23.45;;;12.93;;
9815;SDS011;4947;44.526;11.360;2022-10-19T02:09:48;18.90;;;12.43;;
9815;SDS011;4947;44.526;11.360;2022-10-19T02:12:16;21.08;;;13.63;;
9815;SDS011;4947;44.526;11.360;2022-10-19T02:14:46;24.38;;;13.90;;
9815;SDS011;4947;44.526;11.360;2022-10-19T02:17:18;18.92;;;14.07;;
9815;SDS011;4947;44.526;11.360;2022-10-19T02:19:51;21.42;;;13.63;;
9815;SDS011;4947;44.526;11.360;2022-10-19T02:22:20;22.13;;;13.13;;
9815;SDS011;4947;44.526;11.360;2022-10-19T02:24:48;19.48;;;13.80;;
9815;SDS011;4947;44.526;11.360;2022-10-19T02:27:15;20.80;;;14.23;;
9815;SDS011;4947;44.526;11.360;2022-10-19T02:29:43;21.05;;;13.50;;
9815;SDS011;4947;44.526;11.360;2022-10-19T02:32:11;20.48;;;13.95;;
9815;SDS011;4947;44.526;11.360;2022-10-19T02:34:40;19.90;;;13.85;;
9815;SDS011;4947;44.526;11.360;2022-10-19T02:37:12;22.33;;;14.23;;
9815;SDS011;4947;44.526;11.360;2022-10-19T02:39:39;22.33;;;13.40;;
9815;SDS011;4947;44.526;11.360;2022-10-19T02:42:08;17.25;;;12.88;;
9815;SDS011;4947;44.526;11.360;2022-10-19T02:44:39;20.55;;;12.88;;
9815;SDS011;4947;44.526;11.360;2022-10-19T02:47:10;20.38;;;13.98;;
9815;SDS011;4947;44.526;11.360;2022-10-19T02:49:42;24.23;;;13.00;;
9815;SDS011;4947;44.526;11.360;2022-10-19T02:52:11;27.95;;;14.38;;
9815;SDS011;4947;44.526;11.360;2022-10-19T02:54:39;24.25;;;14.70;;
9815;SDS011;4947;44.526;11.360;2022-10-19T02:57:13;21.52;;;14.07;;
9815;SDS011;4947;44.526;11.360;2022-10-19T02:59:42;24.83;;;12.88;;
9815;SDS011;4947;44.526;11.360;2022-10-19T03:02:10;20.95;;;12.95;;
9815;SDS011;4947;44.526;11.360;2022-10-19T03:04:37;20.88;;;14.25;;
9815;SDS011;4947;44.526;11.360;2022-10-19T03:07:07;21.38;;;14.10;;
9815;SDS011;4947;44.526;11.360;2022-10-19T03:09:35;21.55;;;14.23;;
9815;SDS011;4947;44.526;11.360;2022-10-19T03:12:02;26.92;;;14.95;;
9815;SDS011;4947;44.526;11.360;2022-10-19T03:14:30;22.67;;;15.50;;
9815;SDS011;4947;44.526;11.360;2022-10-19T03:16:58;25.23;;;15.52;;
9815;SDS011;4947;44.526;11.360;2022-10-19T03:19:26;22.38;;;14.70;;
9815;SDS011;4947;44.526;11.360;2022-10-19T03:21:53;24.88;;;14.18;;
9815;SDS011;4947;44.526;11.360;2022-10-19T03:24:22;21.83;;;13.88;;
9815;SDS011;4947;44.526;11.360;2022-10-19T03:26:50;22.65;;;14.27;;
9815;SDS011;4947;44.526;11.360;2022-10-19T03:29:17;29.92;;;15.82;;
9815;SDS011;4947;44.526;11.360;2022-10-19T03:31:45;23.75;;;14.32;;
9815;SDS011;4947;44.526;11.360;2022-10-19T03:34:13;23.00;;;15.18;;
9815;SDS011;4947;44.526;11.360;2022-10-19T03:36:40;22.40;;;15.93;;
9815;SDS011;4947;44.526;11.360;2022-10-19T03:39:09;28.27;;;15.43;;
9815;SDS011;4947;44.526;11.360;2022-10-19T03:41:40;24.45;;;15.55;;
9815;SDS011;4947;44.526;11.360;2022-10-19T03:44:08;27.38;;;15.80;;
9815;SDS011;4947;44.526;11.360;2022-10-19T03:46:36;20.52;;;14.20;;
9815;SDS011;4947;44.526;11.360;2022-10-19T03:49:05;18.77;;;13.75;;
9815;SDS011;4947;44.526;11.360;2022-10-19T03:51:33;20.67;;;14.52;;
9815;SDS011;4947;44.526;11.360;2022-10-19T03:54:02;26.35;;;15.00;;
9815;SDS011;4947;44.526;11.360;2022-10-19T03:56:31;22.08;;;14.65;;
9815;SDS011;4947;44.526;11.360;2022-10-19T03:59:01;23.52;;;15.32;;
9815;SDS011;4947;44.526;11.360;2022-10-19T04:01:31;23.25;;;15.50;;
9815;SDS011;4947;44.526;11.360;2022-10-19T04:04:00;22.25;;;14.00;;
9815;SDS011;4947;44.526;11.360;2022-10-19T04:06:30;25.13;;;15.00;;
9815;SDS011;4947;44.526;11.360;2022-10-19T04:09:01;27.15;;;14.77;;
9815;SDS011;4947;44.526;11.360;2022-10-19T04:11:31;21.67;;;14.23;;
9815;SDS011;4947;44.526;11.360;2022-10-19T04:14:01;21.88;;;14.95;;
9815;SDS011;4947;44.526;11.360;2022-10-19T04:16:29;19.83;;;14.52;;
9815;SDS011;4947;44.526;11.360;2022-10-19T04:18:58;22.80;;;14.18;;
9815;SDS011;4947;44.526;11.360;2022-10-19T04:21:27;23.52;;;14.93;;
9815;SDS011;4947;44.526;11.360;2022-10-19T04:23:57;29.70;;;15.00;;
9815;SDS011;4947;44.526;11.360;2022-10-19T04:26:26;23.65;;;15.20;;
9815;SDS011;4947;44.526;11.360;2022-10-19T04:28:55;25.02;;;14.65;;
9815;SDS011;4947;44.526;11.360;2022-10-19T04:31:24;18.77;;;14.15;;
9815;SDS011;4947;44.526;11.360;2022-10-19T04:33:52;23.65;;;15.45;;
9815;SDS011;4947;44.526;11.360;2022-10-19T04:36:19;36.75;;;15.60;;
9815;SDS011;4947;44.526;11.360;2022-10-19T04:38:47;36.55;;;16.60;;
9815;SDS011;4947;44.526;11.360;2022-10-19T04:41:15;24.63;;;14.75;;
9815;SDS011;4947;44.526;11.360;2022-10-19T04:43:44;25.73;;;14.40;;
9815;SDS011;4947;44.526;11.360;2022-10-19T04:46:13;22.23;;;14.15;;
9815;SDS011;4947;44.526;11.360;2022-10-19T04:48:43;24.35;;;14.25;;
9815;SDS011;4947;44.526;11.360;2022-10-19T04:51:11;27.48;;;15.30;;
9815;SDS011;4947;44.526;11.360;2022-10-19T04:53:40;22.10;;;14.60;;
9815;SDS011;4947;44.526;11.360;2022-10-19T04:56:08;29.10;;;16.38;;
9815;SDS011;4947;44.526;11.360;2022-10-19T04:58:38;26.27;;;14.80;;
9815;SDS011;4947;44.526;11.360;2022-10-19T05:01:06;21.88;;;14.40;;
9815;SDS011;4947;44.526;11.360;2022-10-19T05:03:34;23.20;;;14.45;;
9815;SDS011;4947;44.526;11.360;2022-10-19T05:06:04;23.67;;;14.73;;
9815;SDS011;4947;44.526;11.360;2022-10-19T05:08:33;24.13;;;15.52;;
9815;SDS011;4947;44.526;11.360;2022-10-19T05:11:02;34.45;;;15.20;;
9815;SDS011;4947;44.526;11.360;2022-10-19T05:13:30;21.42;;;14.07;;
9815;SDS011;4947;44.526;11.360;2022-10-19T05:15:59;22.55;;;13.80;;
9815;SDS011;4947;44.526;11.360;2022-10-19T05:18:27;27.10;;;14.95;;
9815;SDS011;4947;44.526;11.360;2022-10-19T05:21:01;21.70;;;13.30;;
9815;SDS011;4947;44.526;11.360;2022-10-19T05:23:32;28.30;;;14.45;;
9815;SDS011;4947;44.526;11.360;2022-10-19T05:26:00;26.20;;;13.77;;
9815;SDS011;4947;44.526;11.360;2022-10-19T05:28:29;20.48;;;13.27;;
9815;SDS011;4947;44.526;11.360;2022-10-19T05:31:03;22.42;;;13.95;;
9815;SDS011;4947;44.526;11.360;2022-10-19T05:33:33;20.67;;;13.88;;
9815;SDS011;4947;44.526;11.360;2022-10-19T05:36:14;19.65;;;12.65;;
9815;SDS011;4947;44.526;11.360;2022-10-19T05:38:43;21.08;;;14.32;;
9815;SDS011;4947;44.526;11.360;2022-10-19T05:41:14;22.73;;;13.23;;
9815;SDS011;4947;44.526;11.360;2022-10-19T05:43:42;24.77;;;13.82;;
9815;SDS011;4947;44.526;11.360;2022-10-19T05:46:11;19.13;;;14.02;;
9815;SDS011;4947;44.526;11.360;2022-10-19T05:48:41;20.60;;;12.82;;
9815;SDS011;4947;44.526;11.360;2022-10-19T05:51:09;25.67;;;14.43;;
9815;SDS011;4947;44.526;11.360;2022-10-19T05:53:43;23.55;;;15.50;;
9815;SDS011;4947;44.526;11.360;2022-10-19T05:56:12;24.27;;;14.85;;
9815;SDS011;4947;44.526;11.360;2022-10-19T05:58:41;21.75;;;14.60;;
9815;SDS011;4947;44.526;11.360;2022-10-19T06:01:09;23.02;;;13.77;;
9815;SDS011;4947;44.526;11.360;2022-10-19T06:03:37;23.30;;;13.02;;
9815;SDS011;4947;44.526;11.360;2022-10-19T06:06:05;23.50;;;14.30;;
9815;SDS011;4947;44.526;11.360;2022-10-19T06:08:34;21.98;;;14.27;;
9815;SDS011;4947;44.526;11.360;2022-10-19T06:11:07;23.52;;;13.02;;
9815;SDS011;4947;44.526;11.360;2022-10-19T06:13:36;22.30;;;13.15;;
9815;SDS011;4947;44.526;11.360;2022-10-19T06:16:04;24.50;;;12.75;;
9815;SDS011;4947;44.526;11.360;2022-10-19T06:18:33;25.70;;;13.57;;
9815;SDS011;4947;44.526;11.360;2022-10-19T06:21:02;18.25;;;12.38;;
9815;SDS011;4947;44.526;11.360;2022-10-19T06:23:30;22.48;;;12.90;;
9815;SDS011;4947;44.526;11.360;2022-10-19T06:26:00;22.50;;;14.38;;
9815;SDS011;4947;44.526;11.360;2022-10-19T06:28:30;21.80;;;11.93;;
9815;SDS011;4947;44.526;11.360;2022-10-19T06:30:57;21.55;;;12.50;;
9815;SDS011;4947;44.526;11.360;2022-10-19T06:33:28;19.50;;;12.73;;
9815;SDS011;4947;44.526;11.360;2022-10-19T06:36:03;23.65;;;13.40;;
9815;SDS011;4947;44.526;11.360;2022-10-19T06:38:31;18.73;;;12.68;;
9815;SDS011;4947;44.526;11.360;2022-10-19T06:40:58;19.85;;;11.93;;
9815;SDS011;4947;44.526;11.360;2022-10-19T06:43:27;23.00;;;11.93;;
9815;SDS011;4947;44.526;11.360;2022-10-19T06:45:56;18.00;;;11.82;;
9815;SDS011;4947;44.526;11.360;2022-10-19T06:48:24;21.13;;;12.32;;
9815;SDS011;4947;44.526;11.360;2022-10-19T06:50:54;27.92;;;13.88;;
9815;SDS011;4947;44.526;11.360;2022-10-19T06:53:23;22.13;;;11.90;;
9815;SDS011;4947;44.526;11.360;2022-10-19T06:55:51;20.83;;;12.55;;
9815;SDS011;4947;44.526;11.360;2022-10-19T06:58:18;17.55;;;11.02;;
9815;SDS011;4947;44.526;11.360;2022-10-19T07:00:52;18.77;;;12.77;;
9815;SDS011;4947;44.526;11.360;2022-10-19T07:03:22;19.40;;;12.38;;
9815;SDS011;4947;44.526;11.360;2022-10-19T07:05:53;16.85;;;11.63;;
9815;SDS011;4947;44.526;11.360;2022-10-19T07:08:22;19.38;;;11.75;;
9815;SDS011;4947;44.526;11.360;2022-10-19T07:10:50;18.58;;;11.48;;
9815;SDS011;4947;44.526;11.360;2022-10-19T07:13:18;23.77;;;12.15;;
9815;SDS011;4947;44.526;11.360;2022-10-19T07:15:45;17.85;;;11.25;;
9815;SDS011;4947;44.526;11.360;2022-10-19T07:18:13;20.33;;;12.55;;
9815;SDS011;4947;44.526;11.360;2022-10-19T07:20:42;24.27;;;11.65;;
9815;SDS011;4947;44.526;11.360;2022-10-19T07:23:19;18.25;;;12.45;;
9815;SDS011;4947;44.526;11.360;2022-10-19T07:25:47;22.02;;;11.45;;
9815;SDS011;4947;44.526;11.360;2022-10-19T07:28:14;22.10;;;12.55;;
9815;SDS011;4947;44.526;11.360;2022-10-19T07:30:41;20.63;;;11.88;;
9815;SDS011;4947;44.526;11.360;2022-10-19T07:33:09;17.15;;;11.88;;
9815;SDS011;4947;44.526;11.360;2022-10-19T07:35:36;17.70;;;11.48;;
9815;SDS011;4947;44.526;11.360;2022-10-19T07:38:05;18.25;;;11.73;;
9815;SDS011;4947;44.526;11.360;2022-10-19T07:40:32;18.17;;;12.40;;
9815;SDS011;4947;44.526;11.360;2022-10-19T07:43:00;23.95;;;13.07;;
9815;SDS011;4947;44.526;11.360;2022-10-19T07:45:31;18.70;;;12.77;;
9815;SDS011;4947;44.526;11.360;2022-10-19T07:47:58;20.40;;;12.55;;
9815;SDS011;4947;44.526;11.360;2022-10-19T07:50:26;22.13;;;13.20;;
9815;SDS011;4947;44.526;11.360;2022-10-19T07:52:53;25.45;;;13.55;;
9815;SDS011;4947;44.526;11.360;2022-10-19T07:55:22;22.92;;;14.65;;
9815;SDS011;4947;44.526;11.360;2022-10-19T07:57:49;24.45;;;15.43;;
9815;SDS011;4947;44.526;11.360;2022-10-19T08:00:17;23.30;;;15.30;;
9815;SDS011;4947;44.526;11.360;2022-10-19T08:02:44;32.00;;;17.40;;
9815;SDS011;4947;44.526;11.360;2022-10-19T08:05:12;28.23;;;16.85;;
9815;SDS011;4947;44.526;11.360;2022-10-19T08:07:39;31.80;;;17.45;;
9815;SDS011;4947;44.526;11.360;2022-10-19T08:10:07;26.13;;;16.27;;
9815;SDS011;4947;44.526;11.360;2022-10-19T08:12:36;26.27;;;16.23;;
9815;SDS011;4947;44.526;11.360;2022-10-19T08:15:04;25.90;;;15.38;;
9815;SDS011;4947;44.526;11.360;2022-10-19T08:17:34;25.58;;;15.40;;
9815;SDS011;4947;44.526;11.360;2022-10-19T08:20:02;26.60;;;14.05;;
9815;SDS011;4947;44.526;11.360;2022-10-19T08:22:31;23.52;;;14.73;;
9815;SDS011;4947;44.526;11.360;2022-10-19T08:24:59;22.80;;;14.65;;
9815;SDS011;4947;44.526;11.360;2022-10-19T08:27:26;24.95;;;14.35;;
9815;SDS011;4947;44.526;11.360;2022-10-19T08:29:55;24.00;;;14.38;;
9815;SDS011;4947;44.526;11.360;2022-10-19T08:32:23;26.08;;;14.02;;
9815;SDS011;4947;44.526;11.360;2022-10-19T08:34:50;22.60;;;15.50;;
9815;SDS011;4947;44.526;11.360;2022-10-19T08:37:18;20.13;;;14.40;;
9815;SDS011;4947;44.526;11.360;2022-10-19T08:39:45;24.67;;;15.02;;
9815;SDS011;4947;44.526;11.360;2022-10-19T08:42:13;24.63;;;14.20;;
9815;SDS011;4947;44.526;11.360;2022-10-19T08:45:04;25.23;;;14.23;;
9815;SDS011;4947;44.526;11.360;2022-10-19T08:47:47;24.42;;;14.25;;
9815;SDS011;4947;44.526;11.360;2022-10-19T08:50:26;25.50;;;16.55;;
9815;SDS011;4947;44.526;11.360;2022-10-19T08:53:01;26.10;;;16.17;;
9815;SDS011;4947;44.526;11.360;2022-10-19T08:55:34;27.08;;;15.77;;
9815;SDS011;4947;44.526;11.360;2022-10-19T08:58:19;27.90;;;15.32;;
9815;SDS011;4947;44.526;11.360;2022-10-19T09:00:58;31.45;;;15.05;;
9815;SDS011;4947;44.526;11.360;2022-10-19T09:03:39;25.52;;;14.23;;
9815;SDS011;4947;44.526;11.360;2022-10-19T09:06:15;23.30;;;16.15;;
9815;SDS011;4947;44.526;11.360;2022-10-19T09:08:48;24.77;;;15.95;;
9815;SDS011;4947;44.526;11.360;2022-10-19T09:11:18;24.67;;;15.50;;
9815;SDS011;4947;44.526;11.360;2022-10-19T09:13:50;28.67;;;15.65;;
9815;SDS011;4947;44.526;11.360;2022-10-19T09:16:27;27.27;;;15.88;;
9815;SDS011;4947;44.526;11.360;2022-10-19T09:18:54;35.50;;;16.65;;
9815;SDS011;4947;44.526;11.360;2022-10-19T09:21:22;29.42;;;16.40;;
9815;SDS011;4947;44.526;11.360;2022-10-19T09:23:56;27.88;;;15.73;;
9815;SDS011;4947;44.526;11.360;2022-10-19T09:26:30;23.05;;;14.73;;
9815;SDS011;4947;44.526;11.360;2022-10-19T09:29:00;25.48;;;16.58;;
9815;SDS011;4947;44.526;11.360;2022-10-19T09:31:35;27.80;;;16.52;;
9815;SDS011;4947;44.526;11.360;2022-10-19T09:34:04;28.83;;;16.67;;
9815;SDS011;4947;44.526;11.360;2022-10-19T09:36:35;27.67;;;16.33;;
9815;SDS011;4947;44.526;11.360;2022-10-19T09:39:05;28.80;;;16.65;;
9815;SDS011;4947;44.526;11.360;2022-10-19T09:41:34;26.42;;;17.73;;
9815;SDS011;4947;44.526;11.360;2022-10-19T09:44:04;32.67;;;17.65;;
9815;SDS011;4947;44.526;11.360;2022-10-19T09:46:36;36.28;;;17.88;;
9815;SDS011;4947;44.526;11.360;2022-10-19T09:49:09;28.55;;;18.50;;
9815;SDS011;4947;44.526;11.360;2022-10-19T09:51:44;32.10;;;18.25;;
9815;SDS011;4947;44.526;11.360;2022-10-19T09:54:22;30.52;;;17.92;;
9815;SDS011;4947;44.526;11.360;2022-10-19T09:56:53;26.02;;;17.30;;
9815;SDS011;4947;44.526;11.360;2022-10-19T09:59:22;32.10;;;18.77;;
9815;SDS011;4947;44.526;11.360;2022-10-19T10:02:16;31.48;;;17.73;;
9815;SDS011;4947;44.526;11.360;2022-10-19T10:04:53;30.10;;;17.23;;
9815;SDS011;4947;44.526;11.360;2022-10-19T10:07:24;30.65;;;17.67;;
9815;SDS011;4947;44.526;11.360;2022-10-19T10:09:58;29.92;;;18.63;;
9815;SDS011;4947;44.526;11.360;2022-10-19T10:12:25;33.20;;;19.02;;
9815;SDS011;4947;44.526;11.360;2022-10-19T10:14:53;34.40;;;18.17;;
9815;SDS011;4947;44.526;11.360;2022-10-19T10:17:22;35.10;;;18.45;;
9815;SDS011;4947;44.526;11.360;2022-10-19T10:20:02;40.90;;;20.13;;
9815;SDS011;4947;44.526;11.360;2022-10-19T10:22:43;30.92;;;18.63;;
9815;SDS011;4947;44.526;11.360;2022-10-19T10:25:18;31.23;;;17.08;;
9815;SDS011;4947;44.526;11.360;2022-10-19T10:27:52;31.38;;;18.65;;
9815;SDS011;4947;44.526;11.360;2022-10-19T10:30:21;31.42;;;19.58;;
9815;SDS011;4947;44.526;11.360;2022-10-19T10:32:51;35.00;;;19.73;;
9815;SDS011;4947;44.526;11.360;2022-10-19T10:35:20;35.40;;;19.08;;
9815;SDS011;4947;44.526;11.360;2022-10-19T10:37:51;33.45;;;20.23;;
9815;SDS011;4947;44.526;11.360;2022-10-19T10:40:29;32.42;;;19.98;;
9815;SDS011;4947;44.526;11.360;2022-10-19T10:43:00;33.55;;;20.45;;
9815;SDS011;4947;44.526;11.360;2022-10-19T10:45:30;35.30;;;21.00;;
9815;SDS011;4947;44.526;11.360;2022-10-19T10:48:05;31.30;;;19.10;;
9815;SDS011;4947;44.526;11.360;2022-10-19T10:50:40;36.50;;;19.90;;
9815;SDS011;4947;44.526;11.360;2022-10-19T10:53:30;38.05;;;19.40;;
9815;SDS011;4947;44.526;11.360;2022-10-19T10:55:58;35.45;;;20.33;;
9815;SDS011;4947;44.526;11.360;2022-10-19T10:58:29;37.30;;;21.17;;
9815;SDS011;4947;44.526;11.360;2022-10-19T11:01:02;39.35;;;22.17;;
9815;SDS011;4947;44.526;11.360;2022-10-19T11:03:33;39.53;;;21.00;;
9815;SDS011;4947;44.526;11.360;2022-10-19T11:06:02;31.73;;;20.02;;
9815;SDS011;4947;44.526;11.360;2022-10-19T11:08:31;34.58;;;20.13;;
9815;SDS011;4947;44.526;11.360;2022-10-19T11:11:10;36.58;;;19.70;;
9815;SDS011;4947;44.526;11.360;2022-10-19T11:13:44;37.47;;;20.63;;
9815;SDS011;4947;44.526;11.360;2022-10-19T11:16:21;37.63;;;21.38;;
9815;SDS011;4947;44.526;11.360;2022-10-19T11:18:52;38.20;;;21.33;;
9815;SDS011;4947;44.526;11.360;2022-10-19T11:21:25;44.00;;;21.55;;
9815;SDS011;4947;44.526;11.360;2022-10-19T11:24:00;36.20;;;19.85;;
9815;SDS011;4947;44.526;11.360;2022-10-19T11:26:38;34.55;;;20.33;;
9815;SDS011;4947;44.526;11.360;2022-10-19T11:29:20;35.28;;;18.92;;
9815;SDS011;4947;44.526;11.360;2022-10-19T11:31:55;28.92;;;18.33;;
9815;SDS011;4947;44.526;11.360;2022-10-19T11:34:33;35.47;;;18.85;;
9815;SDS011;4947;44.526;11.360;2022-10-19T11:37:13;34.95;;;19.85;;
9815;SDS011;4947;44.526;11.360;2022-10-19T11:39:54;35.75;;;20.10;;
9815;SDS011;4947;44.526;11.360;2022-10-19T11:42:33;38.38;;;20.45;;
9815;SDS011;4947;44.526;11.360;2022-10-19T11:45:27;33.35;;;18.35;;
9815;SDS011;4947;44.526;11.360;2022-10-19T11:48:09;34.65;;;19.63;;
9815;SDS011;4947;44.526;11.360;2022-10-19T11:50:59;29.23;;;18.73;;
9815;SDS011;4947;44.526;11.360;2022-10-19T11:53:33;33.25;;;18.42;;
9815;SDS011;4947;44.526;11.360;2022-10-19T11:56:06;33.20;;;19.50;;
9815;SDS011;4947;44.526;11.360;2022-10-19T11:58:42;32.88;;;19.23;;
9815;SDS011;4947;44.526;11.360;2022-10-19T12:01:21;32.40;;;18.67;;
9815;SDS011;4947;44.526;11.360;2022-10-19T12:10:14;35.63;;;21.05;;
9815;SDS011;4947;44.526;11.360;2022-10-19T12:12:50;31.42;;;20.00;;
9815;SDS011;4947;44.526;11.360;2022-10-19T12:15:24;29.45;;;18.30;;
9815;SDS011;4947;44.526;11.360;2022-10-19T12:17:56;27.45;;;18.13;;
9815;SDS011;4947;44.526;11.360;2022-10-19T12:20:29;29.85;;;19.05;;
9815;SDS011;4947;44.526;11.360;2022-10-19T12:23:06;30.17;;;19.38;;
9815;SDS011;4947;44.526;11.360;2022-10-19T12:25:45;33.45;;;18.70;;
9815;SDS011;4947;44.526;11.360;2022-10-19T12:28:15;30.02;;;17.42;;
9815;SDS011;4947;44.526;11.360;2022-10-19T12:30:47;28.38;;;18.17;;
9815;SDS011;4947;44.526;11.360;2022-10-19T12:33:17;31.67;;;20.25;;
9815;SDS011;4947;44.526;11.360;2022-10-19T12:35:58;30.27;;;18.25;;
9815;SDS011;4947;44.526;11.360;2022-10-19T12:38:38;30.83;;;18.98;;
9815;SDS011;4947;44.526;11.360;2022-10-19T12:41:17;32.58;;;19.13;;
9815;SDS011;4947;44.526;11.360;2022-10-19T12:43:55;28.48;;;17.98;;
9815;SDS011;4947;44.526;11.360;2022-10-19T12:46:34;31.33;;;19.58;;
9815;SDS011;4947;44.526;11.360;2022-10-19T12:52:08;36.22;;;19.85;;
9815;SDS011;4947;44.526;11.360;2022-10-19T12:54:38;35.38;;;20.70;;
9815;SDS011;4947;44.526;11.360;2022-10-19T12:57:20;29.85;;;18.45;;
9815;SDS011;4947;44.526;11.360;2022-10-19T12:59:56;27.90;;;17.67;;
9815;SDS011;4947;44.526;11.360;2022-10-19T13:02:27;29.30;;;17.40;;
9815;SDS011;4947;44.526;11.360;2022-10-19T13:04:57;29.15;;;16.77;;
9815;SDS011;4947;44.526;11.360;2022-10-19T13:07:25;27.27;;;17.40;;
9815;SDS011;4947;44.526;11.360;2022-10-19T13:10:02;30.42;;;16.55;;
9815;SDS011;4947;44.526;11.360;2022-10-19T13:21:45;28.00;;;16.92;;
9815;SDS011;4947;44.526;11.360;2022-10-19T13:24:25;33.00;;;18.67;;
9815;SDS011;4947;44.526;11.360;2022-10-19T13:30:00;33.38;;;17.70;;
9815;SDS011;4947;44.526;11.360;2022-10-19T13:32:29;31.00;;;17.83;;
9815;SDS011;4947;44.526;11.360;2022-10-19T13:41:08;26.45;;;16.15;;
9815;SDS011;4947;44.526;11.360;2022-10-19T13:43:49;31.33;;;17.85;;
9815;SDS011;4947;44.526;11.360;2022-10-19T13:46:21;30.70;;;16.33;;
9815;SDS011;4947;44.526;11.360;2022-10-19T13:51:57;26.17;;;15.98;;
9815;SDS011;4947;44.526;11.360;2022-10-19T13:54:52;21.35;;;15.38;;
9815;SDS011;4947;44.526;11.360;2022-10-19T13:57:43;23.02;;;14.82;;
9815;SDS011;4947;44.526;11.360;2022-10-19T14:00:26;25.63;;;15.15;;
9815;SDS011;4947;44.526;11.360;2022-10-19T14:02:59;28.40;;;15.07;;
9815;SDS011;4947;44.526;11.360;2022-10-19T14:05:46;23.05;;;14.02;;
9815;SDS011;4947;44.526;11.360;2022-10-19T14:08:29;22.25;;;14.73;;
9815;SDS011;4947;44.526;11.360;2022-10-19T14:11:10;26.27;;;14.63;;
9815;SDS011;4947;44.526;11.360;2022-10-19T14:13:39;26.33;;;16.92;;
9815;SDS011;4947;44.526;11.360;2022-10-19T14:16:15;26.42;;;14.70;;
9815;SDS011;4947;44.526;11.360;2022-10-19T14:18:51;24.58;;;14.77;;
9815;SDS011;4947;44.526;11.360;2022-10-19T14:21:28;22.10;;;14.80;;
9815;SDS011;4947;44.526;11.360;2022-10-19T14:23:56;22.15;;;14.77;;
9815;SDS011;4947;44.526;11.360;2022-10-19T14:26:25;24.77;;;14.55;;
9815;SDS011;4947;44.526;11.360;2022-10-19T14:28:55;25.70;;;13.27;;
9815;SDS011;4947;44.526;11.360;2022-10-19T14:31:27;25.17;;;14.13;;
9815;SDS011;4947;44.526;11.360;2022-10-19T14:34:00;24.67;;;13.93;;
9815;SDS011;4947;44.526;11.360;2022-10-19T14:36:30;26.25;;;14.75;;
9815;SDS011;4947;44.526;11.360;2022-10-19T14:39:02;21.30;;;13.05;;
9815;SDS011;4947;44.526;11.360;2022-10-19T14:41:30;24.33;;;14.32;;
9815;SDS011;4947;44.526;11.360;2022-10-19T14:44:00;27.85;;;15.18;;
9815;SDS011;4947;44.526;11.360;2022-10-19T14:46:47;25.95;;;15.07;;
9815;SDS011;4947;44.526;11.360;2022-10-19T14:49:15;26.67;;;14.00;;
9815;SDS011;4947;44.526;11.360;2022-10-19T14:51:43;20.25;;;12.93;;
9815;SDS011;4947;44.526;11.360;2022-10-19T14:54:15;29.10;;;16.17;;
9815;SDS011;4947;44.526;11.360;2022-10-19T14:56:50;24.95;;;14.52;;
9815;SDS011;4947;44.526;11.360;2022-10-19T14:59:23;21.88;;;14.93;;
9815;SDS011;4947;44.526;11.360;2022-10-19T15:01:54;21.75;;;14.48;;
9815;SDS011;4947;44.526;11.360;2022-10-19T15:04:24;20.65;;;13.38;;
9815;SDS011;4947;44.526;11.360;2022-10-19T15:06:55;25.85;;;13.85;;
9815;SDS011;4947;44.526;11.360;2022-10-19T15:09:24;24.35;;;14.13;;
9815;SDS011;4947;44.526;11.360;2022-10-19T15:11:54;21.88;;;12.65;;
9815;SDS011;4947;44.526;11.360;2022-10-19T15:14:29;25.65;;;13.32;;
9815;SDS011;4947;44.526;11.360;2022-10-19T15:16:59;26.17;;;14.15;;
9815;SDS011;4947;44.526;11.360;2022-10-19T15:19:29;18.08;;;12.30;;
9815;SDS011;4947;44.526;11.360;2022-10-19T15:22:10;24.02;;;13.05;;
9815;SDS011;4947;44.526;11.360;2022-10-19T15:24:52;27.27;;;12.70;;
9815;SDS011;4947;44.526;11.360;2022-10-19T15:27:28;23.20;;;12.82;;
9815;SDS011;4947;44.526;11.360;2022-10-19T15:30:03;18.30;;;12.13;;
9815;SDS011;4947;44.526;11.360;2022-10-19T15:32:34;20.00;;;12.65;;